sensor_id;sensor_type;location;lat;lon;timestamp;pressure;altitude;pressure_sealevel;temperature;humidity
75972;BME280;64651;47.540;19.088;2023-10-31T00:00:17;99530.06;;;15.78;73.99
75972;BME280;64651;47.540;19.088;2023-10-31T00:05:19;99527.34;;;15.69;74.13
75972;BME280;64651;47.540;19.088;2023-10-31T00:10:23;99501.75;;;15.64;74.32
75972;BME280;64651;47.540;19.088;2023-10-31T00:15:25;99503.31;;;15.44;75.21
75972;BME280;64651;47.540;19.088;2023-10-31T00:20:27;99514.25;;;15.40;75.14
75972;BME280;64651;47.540;19.088;2023-10-31T00:25:29;99504.31;;;15.39;75.17
75972;BME280;64651;47.540;19.088;2023-10-31T00:30:31;99500.66;;;15.56;74.63
75972;BME280;64651;47.540;19.088;2023-10-31T00:35:33;99497.09;;;15.47;74.84
75972;BME280;64651;47.540;19.088;2023-10-31T00:40:36;99491.25;;;15.40;75.10
75972;BME280;64651;47.540;19.088;2023-10-31T00:45:38;99481.88;;;15.24;75.49
75972;BME280;64651;47.540;19.088;2023-10-31T00:50:40;99472.84;;;14.97;76.53
75972;BME280;64651;47.540;19.088;2023-10-31T00:55:42;99464.06;;;14.95;76.56
75972;BME280;64651;47.540;19.088;2023-10-31T01:00:46;99457.19;;;15.01;76.46
75972;BME280;64651;47.540;19.088;2023-10-31T01:05:48;99451.22;;;14.91;76.87
75972;BME280;64651;47.540;19.088;2023-10-31T01:10:50;99438.63;;;15.02;76.24
75972;BME280;64651;47.540;19.088;2023-10-31T01:15:52;99436.66;;;15.02;76.22
75972;BME280;64651;47.540;19.088;2023-10-31T01:20:54;99430.09;;;15.16;75.84
75972;BME280;64651;47.540;19.088;2023-10-31T01:25:56;99421.47;;;15.09;76.30
75972;BME280;64651;47.540;19.088;2023-10-31T01:30:58;99410.06;;;15.10;76.16
75972;BME280;64651;47.540;19.088;2023-10-31T01:36:01;99403.75;;;15.01;76.64
75972;BME280;64651;47.540;19.088;2023-10-31T01:41:03;99400.56;;;15.20;75.94
75972;BME280;64651;47.540;19.088;2023-10-31T01:46:05;99395.69;;;15.17;76.18
75972;BME280;64651;47.540;19.088;2023-10-31T01:51:09;99398.37;;;15.05;76.79
75972;BME280;64651;47.540;19.088;2023-10-31T01:56:13;99377.84;;;15.26;75.87
75972;BME280;64651;47.540;19.088;2023-10-31T02:01:16;99380.91;;;15.33;75.64
75972;BME280;64651;47.540;19.088;2023-10-31T02:06:18;99382.63;;;15.47;75.33
75972;BME280;64651;47.540;19.088;2023-10-31T02:11:20;99382.75;;;15.50;75.29
75972;BME280;64651;47.540;19.088;2023-10-31T02:16:23;99372.25;;;15.64;74.80
75972;BME280;64651;47.540;19.088;2023-10-31T02:21:25;99379.62;;;15.60;74.87
75972;BME280;64651;47.540;19.088;2023-10-31T02:26:34;99361.00;;;15.81;74.13
75972;BME280;64651;47.540;19.088;2023-10-31T02:31:37;99353.34;;;15.99;73.03
75972;BME280;64651;47.540;19.088;2023-10-31T02:36:39;99351.53;;;15.82;73.46
75972;BME280;64651;47.540;19.088;2023-10-31T02:41:41;99358.66;;;16.04;72.12
75972;BME280;64651;47.540;19.088;2023-10-31T02:46:43;99359.47;;;16.05;71.91
75972;BME280;64651;47.540;19.088;2023-10-31T02:51:46;99345.59;;;16.05;71.65
75972;BME280;64651;47.540;19.088;2023-10-31T02:56:48;99343.38;;;15.98;71.55
75972;BME280;64651;47.540;19.088;2023-10-31T03:01:50;99335.31;;;16.05;71.16
75972;BME280;64651;47.540;19.088;2023-10-31T03:06:52;99341.12;;;16.12;70.76
75972;BME280;64651;47.540;19.088;2023-10-31T03:11:54;99349.34;;;16.09;70.34
75972;BME280;64651;47.540;19.088;2023-10-31T03:16:57;99346.81;;;16.16;70.24
75972;BME280;64651;47.540;19.088;2023-10-31T03:21:59;99352.16;;;16.21;70.99
75972;BME280;64651;47.540;19.088;2023-10-31T03:27:01;99358.63;;;16.25;71.07
75972;BME280;64651;47.540;19.088;2023-10-31T03:32:04;99341.28;;;16.16;71.59
75972;BME280;64651;47.540;19.088;2023-10-31T03:37:07;99353.47;;;16.03;72.58
75972;BME280;64651;47.540;19.088;2023-10-31T03:42:09;99372.22;;;16.39;71.63
75972;BME280;64651;47.540;19.088;2023-10-31T03:47:11;99382.09;;;16.60;70.99
75972;BME280;64651;47.540;19.088;2023-10-31T03:52:13;99385.38;;;16.42;71.81
75972;BME280;64651;47.540;19.088;2023-10-31T03:57:16;99414.03;;;16.01;76.77
75972;BME280;64651;47.540;19.088;2023-10-31T04:02:18;99385.72;;;15.54;77.06
75972;BME280;64651;47.540;19.088;2023-10-31T04:07:20;99371.06;;;15.86;77.14
75972;BME280;64651;47.540;19.088;2023-10-31T04:12:22;99395.38;;;16.10;76.45
75972;BME280;64651;47.540;19.088;2023-10-31T04:17:24;99377.69;;;15.94;79.65
75972;BME280;64651;47.540;19.088;2023-10-31T04:22:27;99376.37;;;16.12;77.71
75972;BME280;64651;47.540;19.088;2023-10-31T04:27:29;99366.44;;;16.11;77.58
75972;BME280;64651;47.540;19.088;2023-10-31T04:32:31;99353.75;;;16.10;77.78
75972;BME280;64651;47.540;19.088;2023-10-31T04:37:33;99340.00;;;15.93;77.51
75972;BME280;64651;47.540;19.088;2023-10-31T04:42:38;99320.59;;;15.93;77.61
75972;BME280;64651;47.540;19.088;2023-10-31T04:47:41;99322.66;;;15.83;78.26
75972;BME280;64651;47.540;19.088;2023-10-31T04:52:44;99333.38;;;15.73;78.38
75972;BME280;64651;47.540;19.088;2023-10-31T04:57:46;99309.03;;;15.91;76.92
75972;BME280;64651;47.540;19.088;2023-10-31T05:02:48;99309.31;;;15.98;77.33
75972;BME280;64651;47.540;19.088;2023-10-31T05:07:50;99303.34;;;15.87;77.73
75972;BME280;64651;47.540;19.088;2023-10-31T05:12:52;99296.75;;;15.79;77.69
75972;BME280;64651;47.540;19.088;2023-10-31T05:17:55;99276.53;;;15.79;78.21
75972;BME280;64651;47.540;19.088;2023-10-31T05:22:58;99275.03;;;15.81;78.20
75972;BME280;64651;47.540;19.088;2023-10-31T05:28:00;99264.75;;;16.51;75.01
75972;BME280;64651;47.540;19.088;2023-10-31T05:33:03;99286.00;;;16.47;75.22
75972;BME280;64651;47.540;19.088;2023-10-31T05:38:05;99317.56;;;16.63;75.09
75972;BME280;64651;47.540;19.088;2023-10-31T05:43:07;99360.16;;;16.80;74.03
75972;BME280;64651;47.540;19.088;2023-10-31T05:48:09;99347.56;;;16.37;75.07
75972;BME280;64651;47.540;19.088;2023-10-31T05:53:11;99332.44;;;16.02;76.80
75972;BME280;64651;47.540;19.088;2023-10-31T05:58:14;99302.25;;;16.57;75.46
75972;BME280;64651;47.540;19.088;2023-10-31T06:03:20;99301.22;;;16.86;74.04
75972;BME280;64651;47.540;19.088;2023-10-31T06:08:22;99307.34;;;16.92;74.15
75972;BME280;64651;47.540;19.088;2023-10-31T06:13:26;99290.69;;;16.92;74.46
75972;BME280;64651;47.540;19.088;2023-10-31T06:18:29;99274.25;;;16.99;74.29
75972;BME280;64651;47.540;19.088;2023-10-31T06:23:31;99308.94;;;16.56;74.98
75972;BME280;64651;47.540;19.088;2023-10-31T06:28:34;99301.13;;;16.83;73.44
75972;BME280;64651;47.540;19.088;2023-10-31T06:33:44;99280.38;;;16.92;73.03
75972;BME280;64651;47.540;19.088;2023-10-31T06:38:46;99296.12;;;17.00;73.30
75972;BME280;64651;47.540;19.088;2023-10-31T06:43:48;99315.28;;;16.33;76.57
75972;BME280;64651;47.540;19.088;2023-10-31T06:48:50;99313.75;;;16.23;76.82
75972;BME280;64651;47.540;19.088;2023-10-31T06:53:53;99293.16;;;16.24;77.61
75972;BME280;64651;47.540;19.088;2023-10-31T06:58:55;99301.97;;;16.26;78.12
75972;BME280;64651;47.540;19.088;2023-10-31T07:03:58;99312.50;;;16.33;77.88
75972;BME280;64651;47.540;19.088;2023-10-31T07:09:00;99316.22;;;16.37;76.08
75972;BME280;64651;47.540;19.088;2023-10-31T07:14:06;99314.50;;;16.44;71.36
75972;BME280;64651;47.540;19.088;2023-10-31T07:19:09;99286.97;;;16.51;72.49
75972;BME280;64651;47.540;19.088;2023-10-31T07:24:12;99289.31;;;16.86;73.82
75972;BME280;64651;47.540;19.088;2023-10-31T07:29:14;99293.56;;;17.20;74.15
75972;BME280;64651;47.540;19.088;2023-10-31T07:34:16;99298.03;;;17.36;72.76
75972;BME280;64651;47.540;19.088;2023-10-31T07:39:19;99295.50;;;17.31;73.64
75972;BME280;64651;47.540;19.088;2023-10-31T07:44:22;99289.41;;;17.54;71.76
75972;BME280;64651;47.540;19.088;2023-10-31T07:49:25;99276.87;;;17.88;71.70
75972;BME280;64651;47.540;19.088;2023-10-31T07:54:27;99288.81;;;17.88;72.27
75972;BME280;64651;47.540;19.088;2023-10-31T07:59:33;99290.84;;;18.03;72.14
75972;BME280;64651;47.540;19.088;2023-10-31T08:04:35;99282.34;;;18.28;70.83
75972;BME280;64651;47.540;19.088;2023-10-31T08:09:37;99283.34;;;18.67;68.96
75972;BME280;64651;47.540;19.088;2023-10-31T08:14:45;99277.19;;;19.08;68.34
75972;BME280;64651;47.540;19.088;2023-10-31T08:19:48;99281.56;;;19.44;66.13
75972;BME280;64651;47.540;19.088;2023-10-31T08:24:50;99276.66;;;19.37;65.76
75972;BME280;64651;47.540;19.088;2023-10-31T08:29:52;99274.78;;;19.26;64.26
75972;BME280;64651;47.540;19.088;2023-10-31T08:34:54;99276.53;;;19.50;64.71
75972;BME280;64651;47.540;19.088;2023-10-31T08:39:58;99284.72;;;19.42;63.73
75972;BME280;64651;47.540;19.088;2023-10-31T08:45:00;99264.41;;;19.61;61.72
75972;BME280;64651;47.540;19.088;2023-10-31T08:50:02;99262.69;;;19.95;60.18
75972;BME280;64651;47.540;19.088;2023-10-31T08:55:05;99251.72;;;20.48;58.57
75972;BME280;64651;47.540;19.088;2023-10-31T09:00:08;99254.41;;;21.16;56.08
75972;BME280;64651;47.540;19.088;2023-10-31T09:05:10;99248.25;;;21.33;56.70
75972;BME280;64651;47.540;19.088;2023-10-31T09:10:13;99230.97;;;21.28;55.54
75972;BME280;64651;47.540;19.088;2023-10-31T09:15:15;99230.59;;;21.96;54.53
75972;BME280;64651;47.540;19.088;2023-10-31T09:20:20;99227.69;;;22.22;53.48
75972;BME280;64651;47.540;19.088;2023-10-31T09:25:22;99219.09;;;22.49;51.00
75972;BME280;64651;47.540;19.088;2023-10-31T09:30:25;99203.91;;;23.04;50.37
75972;BME280;64651;47.540;19.088;2023-10-31T09:35:28;99204.34;;;23.14;49.10
75972;BME280;64651;47.540;19.088;2023-10-31T09:40:30;99187.28;;;22.75;47.86
75972;BME280;64651;47.540;19.088;2023-10-31T09:45:32;99178.56;;;22.36;47.78
75972;BME280;64651;47.540;19.088;2023-10-31T09:50:35;99178.25;;;22.51;49.14
75972;BME280;64651;47.540;19.088;2023-10-31T09:55:38;99189.41;;;22.41;48.08
75972;BME280;64651;47.540;19.088;2023-10-31T10:00:40;99173.59;;;22.70;45.02
75972;BME280;64651;47.540;19.088;2023-10-31T10:05:44;99152.28;;;23.30;45.80
75972;BME280;64651;47.540;19.088;2023-10-31T10:10:48;99132.53;;;22.37;42.69
75972;BME280;64651;47.540;19.088;2023-10-31T10:15:51;99110.34;;;22.72;42.45
75972;BME280;64651;47.540;19.088;2023-10-31T10:20:59;99105.16;;;22.74;42.56
75972;BME280;64651;47.540;19.088;2023-10-31T10:26:01;99087.84;;;22.65;42.80
75972;BME280;64651;47.540;19.088;2023-10-31T10:31:04;99083.81;;;22.62;41.02
75972;BME280;64651;47.540;19.088;2023-10-31T10:36:10;99067.97;;;22.95;41.45
75972;BME280;64651;47.540;19.088;2023-10-31T10:41:14;99049.72;;;23.79;40.33
75972;BME280;64651;47.540;19.088;2023-10-31T10:46:21;99038.38;;;24.67;38.39
75972;BME280;64651;47.540;19.088;2023-10-31T10:56:44;99038.44;;;24.50;38.13
75972;BME280;64651;47.540;19.088;2023-10-31T11:01:49;99020.78;;;24.35;38.46
75972;BME280;64651;47.540;19.088;2023-10-31T11:06:51;99016.34;;;24.34;39.45
75972;BME280;64651;47.540;19.088;2023-10-31T11:11:54;98993.41;;;24.53;39.18
75972;BME280;64651;47.540;19.088;2023-10-31T11:17:02;98970.56;;;26.17;36.96
75972;BME280;64651;47.540;19.088;2023-10-31T11:22:07;98952.00;;;25.82;37.18
75972;BME280;64651;47.540;19.088;2023-10-31T11:27:09;98951.00;;;23.84;41.16
75972;BME280;64651;47.540;19.088;2023-10-31T11:32:14;98957.41;;;23.21;42.60
75972;BME280;64651;47.540;19.088;2023-10-31T11:37:26;98972.16;;;21.99;44.41
75972;BME280;64651;47.540;19.088;2023-10-31T11:42:31;98968.19;;;20.75;49.94
75972;BME280;64651;47.540;19.088;2023-10-31T11:47:48;98928.66;;;20.73;51.20
75972;BME280;64651;47.540;19.088;2023-10-31T11:58:22;98922.66;;;20.75;52.28
75972;BME280;64651;47.540;19.088;2023-10-31T12:03:24;98920.06;;;20.25;52.96
75972;BME280;64651;47.540;19.088;2023-10-31T12:08:32;98901.91;;;20.39;52.70
75972;BME280;64651;47.540;19.088;2023-10-31T12:13:37;98906.69;;;20.08;52.62
75972;BME280;64651;47.540;19.088;2023-10-31T12:18:40;98866.22;;;19.95;53.03
75972;BME280;64651;47.540;19.088;2023-10-31T12:23:42;98860.56;;;19.88;53.75
75972;BME280;64651;47.540;19.088;2023-10-31T12:28:44;98897.13;;;19.27;59.00
75972;BME280;64651;47.540;19.088;2023-10-31T12:33:46;99020.63;;;18.85;62.86
75972;BME280;64651;47.540;19.088;2023-10-31T12:38:48;99214.28;;;14.73;97.24
75972;BME280;64651;47.540;19.088;2023-10-31T12:43:52;99199.94;;;14.50;100.00
75972;BME280;64651;47.540;19.088;2023-10-31T12:48:58;99192.31;;;14.47;100.00
75972;BME280;64651;47.540;19.088;2023-10-31T12:54:00;99169.22;;;14.43;100.00
75972;BME280;64651;47.540;19.088;2023-10-31T12:59:03;99149.75;;;14.81;100.00
75972;BME280;64651;47.540;19.088;2023-10-31T13:04:05;99110.63;;;15.15;100.00
75972;BME280;64651;47.540;19.088;2023-10-31T13:09:08;99105.25;;;15.31;100.00
75972;BME280;64651;47.540;19.088;2023-10-31T13:14:14;99130.91;;;15.40;100.00
75972;BME280;64651;47.540;19.088;2023-10-31T13:19:16;99209.09;;;14.92;100.00
75972;BME280;64651;47.540;19.088;2023-10-31T13:24:19;99187.06;;;14.95;100.00
75972;BME280;64651;47.540;19.088;2023-10-31T13:29:21;99137.50;;;14.61;100.00
75972;BME280;64651;47.540;19.088;2023-10-31T13:34:27;99151.53;;;14.97;100.00
75972;BME280;64651;47.540;19.088;2023-10-31T13:39:33;99162.63;;;14.77;100.00
75972;BME280;64651;47.540;19.088;2023-10-31T13:44:36;99217.13;;;14.85;100.00
75972;BME280;64651;47.540;19.088;2023-10-31T13:49:38;99259.41;;;14.44;100.00
75972;BME280;64651;47.540;19.088;2023-10-31T13:54:41;99294.25;;;14.45;100.00
75972;BME280;64651;47.540;19.088;2023-10-31T13:59:43;99288.91;;;14.98;100.00
75972;BME280;64651;47.540;19.088;2023-10-31T14:04:45;99256.19;;;14.25;100.00
75972;BME280;64651;47.540;19.088;2023-10-31T14:09:47;99223.84;;;14.16;100.00
75972;BME280;64651;47.540;19.088;2023-10-31T14:14:51;99173.81;;;14.30;100.00
75972;BME280;64651;47.540;19.088;2023-10-31T14:19:53;99096.84;;;14.53;100.00
75972;BME280;64651;47.540;19.088;2023-10-31T14:24:55;99001.03;;;14.81;99.06
75972;BME280;64651;47.540;19.088;2023-10-31T14:30:00;99109.72;;;14.90;96.50
75972;BME280;64651;47.540;19.088;2023-10-31T14:35:09;99075.84;;;14.93;96.85
75972;BME280;64651;47.540;19.088;2023-10-31T14:40:11;99106.41;;;14.97;95.87
75972;BME280;64651;47.540;19.088;2023-10-31T14:45:14;99093.75;;;14.75;96.59
75972;BME280;64651;47.540;19.088;2023-10-31T14:50:16;99108.34;;;14.64;95.61
75972;BME280;64651;47.540;19.088;2023-10-31T14:55:18;99091.53;;;14.69;93.73
75972;BME280;64651;47.540;19.088;2023-10-31T15:00:20;99127.22;;;14.82;95.36
75972;BME280;64651;47.540;19.088;2023-10-31T15:05:23;99136.56;;;14.98;91.07
75972;BME280;64651;47.540;19.088;2023-10-31T15:10:25;99184.34;;;15.28;90.48
75972;BME280;64651;47.540;19.088;2023-10-31T15:15:30;99220.47;;;14.99;88.40
75972;BME280;64651;47.540;19.088;2023-10-31T15:20:32;99239.09;;;14.90;89.08
75972;BME280;64651;47.540;19.088;2023-10-31T15:25:35;99274.38;;;14.72;88.20
75972;BME280;64651;47.540;19.088;2023-10-31T15:30:37;99284.50;;;14.39;89.26
75972;BME280;64651;47.540;19.088;2023-10-31T15:35:39;99304.56;;;14.65;90.14
75972;BME280;64651;47.540;19.088;2023-10-31T15:40:42;99334.16;;;15.02;89.89
75972;BME280;64651;47.540;19.088;2023-10-31T15:45:44;99337.75;;;14.74;88.90
75972;BME280;64651;47.540;19.088;2023-10-31T15:50:46;99326.88;;;14.60;87.71
75972;BME280;64651;47.540;19.088;2023-10-31T15:55:48;99332.91;;;14.62;87.24
75972;BME280;64651;47.540;19.088;2023-10-31T16:00:50;99342.34;;;14.70;87.95
75972;BME280;64651;47.540;19.088;2023-10-31T16:05:53;99354.09;;;14.58;86.36
75972;BME280;64651;47.540;19.088;2023-10-31T16:10:55;99336.34;;;14.59;87.21
75972;BME280;64651;47.540;19.088;2023-10-31T16:15:57;99338.25;;;14.20;88.84
75972;BME280;64651;47.540;19.088;2023-10-31T16:21:00;99383.16;;;14.26;87.75
75972;BME280;64651;47.540;19.088;2023-10-31T16:26:03;99372.59;;;14.11;87.71
75972;BME280;64651;47.540;19.088;2023-10-31T16:31:06;99379.31;;;13.84;87.86
75972;BME280;64651;47.540;19.088;2023-10-31T16:36:08;99374.34;;;14.15;86.10
75972;BME280;64651;47.540;19.088;2023-10-31T16:41:13;99388.03;;;14.20;86.96
75972;BME280;64651;47.540;19.088;2023-10-31T16:46:15;99385.75;;;14.22;86.40
75972;BME280;64651;47.540;19.088;2023-10-31T16:51:18;99385.13;;;14.08;84.99
75972;BME280;64651;47.540;19.088;2023-10-31T16:56:21;99393.25;;;13.79;86.30
75972;BME280;64651;47.540;19.088;2023-10-31T17:01:23;99425.62;;;13.78;86.84
75972;BME280;64651;47.540;19.088;2023-10-31T17:06:25;99438.59;;;13.44;87.40
75972;BME280;64651;47.540;19.088;2023-10-31T17:11:30;99480.41;;;13.68;87.15
75972;BME280;64651;47.540;19.088;2023-10-31T17:16:32;99498.84;;;14.15;85.91
75972;BME280;64651;47.540;19.088;2023-10-31T17:21:34;99523.75;;;14.24;86.16
75972;BME280;64651;47.540;19.088;2023-10-31T17:26:37;99545.25;;;14.36;84.08
75972;BME280;64651;47.540;19.088;2023-10-31T17:31:39;99544.16;;;14.45;84.92
75972;BME280;64651;47.540;19.088;2023-10-31T17:36:41;99542.31;;;14.84;83.75
75972;BME280;64651;47.540;19.088;2023-10-31T17:41:43;99541.47;;;14.83;84.39
75972;BME280;64651;47.540;19.088;2023-10-31T17:46:47;99551.06;;;14.94;84.49
75972;BME280;64651;47.540;19.088;2023-10-31T17:51:49;99550.94;;;14.82;84.85
75972;BME280;64651;47.540;19.088;2023-10-31T17:56:52;99560.75;;;14.63;82.60
75972;BME280;64651;47.540;19.088;2023-10-31T18:01:54;99565.78;;;14.52;81.42
75972;BME280;64651;47.540;19.088;2023-10-31T18:06:56;99564.66;;;14.44;79.00
75972;BME280;64651;47.540;19.088;2023-10-31T18:11:58;99567.09;;;14.54;77.02
75972;BME280;64651;47.540;19.088;2023-10-31T18:17:01;99573.59;;;14.33;75.37
75972;BME280;64651;47.540;19.088;2023-10-31T18:22:03;99571.25;;;14.09;75.79
75972;BME280;64651;47.540;19.088;2023-10-31T18:27:05;99554.78;;;13.78;76.88
75972;BME280;64651;47.540;19.088;2023-10-31T18:32:09;99557.47;;;13.52;76.92
75972;BME280;64651;47.540;19.088;2023-10-31T18:37:11;99537.59;;;13.42;77.35
75972;BME280;64651;47.540;19.088;2023-10-31T18:42:14;99544.41;;;13.44;76.39
75972;BME280;64651;47.540;19.088;2023-10-31T18:47:16;99550.47;;;13.15;77.15
75972;BME280;64651;47.540;19.088;2023-10-31T18:52:18;99587.72;;;13.26;77.06
75972;BME280;64651;47.540;19.088;2023-10-31T18:57:21;99599.94;;;13.12;77.53
75972;BME280;64651;47.540;19.088;2023-10-31T19:02:24;99594.41;;;13.03;77.74
75972;BME280;64651;47.540;19.088;2023-10-31T19:07:26;99626.78;;;13.11;77.02
75972;BME280;64651;47.540;19.088;2023-10-31T19:12:28;99648.78;;;13.16;75.63
75972;BME280;64651;47.540;19.088;2023-10-31T19:17:32;99666.06;;;13.08;75.11
75972;BME280;64651;47.540;19.088;2023-10-31T19:22:34;99650.87;;;12.97;74.80
75972;BME280;64651;47.540;19.088;2023-10-31T19:27:36;99654.69;;;12.87;75.38
75972;BME280;64651;47.540;19.088;2023-10-31T19:32:38;99639.81;;;12.75;76.11
75972;BME280;64651;47.540;19.088;2023-10-31T19:37:41;99663.53;;;12.76;76.18
75972;BME280;64651;47.540;19.088;2023-10-31T19:42:46;99670.94;;;12.67;75.95
75972;BME280;64651;47.540;19.088;2023-10-31T19:47:48;99661.59;;;12.76;75.82
75972;BME280;64651;47.540;19.088;2023-10-31T19:52:51;99665.81;;;12.74;75.50
75972;BME280;64651;47.540;19.088;2023-10-31T19:57:59;99662.53;;;12.72;75.67
75972;BME280;64651;47.540;19.088;2023-10-31T20:03:10;99660.38;;;12.69;75.86
75972;BME280;64651;47.540;19.088;2023-10-31T20:08:14;99673.59;;;12.58;75.92
75972;BME280;64651;47.540;19.088;2023-10-31T20:13:18;99682.41;;;12.60;75.28
75972;BME280;64651;47.540;19.088;2023-10-31T20:18:22;99704.81;;;12.81;74.44
75972;BME280;64651;47.540;19.088;2023-10-31T20:23:36;99719.34;;;12.86;74.22
75972;BME280;64651;47.540;19.088;2023-10-31T20:28:41;99720.31;;;13.04;73.63
75972;BME280;64651;47.540;19.088;2023-10-31T20:33:45;99726.56;;;12.96;73.91
75972;BME280;64651;47.540;19.088;2023-10-31T20:38:50;99747.56;;;12.83;74.43
75972;BME280;64651;47.540;19.088;2023-10-31T20:43:52;99758.13;;;12.68;75.21
75972;BME280;64651;47.540;19.088;2023-10-31T20:48:55;99760.13;;;12.76;74.90
75972;BME280;64651;47.540;19.088;2023-10-31T20:53:57;99768.41;;;12.76;74.78
75972;BME280;64651;47.540;19.088;2023-10-31T20:58:59;99777.94;;;12.70;74.82
75972;BME280;64651;47.540;19.088;2023-10-31T21:04:02;99794.78;;;12.82;74.46
75972;BME280;64651;47.540;19.088;2023-10-31T21:09:05;99800.72;;;12.89;73.77
75972;BME280;64651;47.540;19.088;2023-10-31T21:14:08;99794.72;;;12.73;73.76
75972;BME280;64651;47.540;19.088;2023-10-31T21:19:10;99808.09;;;12.52;73.93
75972;BME280;64651;47.540;19.088;2023-10-31T21:24:15;99808.63;;;12.68;73.24
75972;BME280;64651;47.540;19.088;2023-10-31T21:29:20;99822.53;;;12.49;73.60
75972;BME280;64651;47.540;19.088;2023-10-31T21:34:22;99826.69;;;12.33;74.49
75972;BME280;64651;47.540;19.088;2023-10-31T21:39:25;99827.00;;;12.18;75.36
75972;BME280;64651;47.540;19.088;2023-10-31T21:44:27;99833.50;;;12.08;75.79
75972;BME280;64651;47.540;19.088;2023-10-31T21:49:29;99836.34;;;12.03;76.22
75972;BME280;64651;47.540;19.088;2023-10-31T21:54:31;99841.09;;;12.16;76.02
75972;BME280;64651;47.540;19.088;2023-10-31T21:59:35;99850.19;;;12.17;75.88
75972;BME280;64651;47.540;19.088;2023-10-31T22:04:37;99858.28;;;12.41;74.44
75972;BME280;64651;47.540;19.088;2023-10-31T22:09:39;99859.72;;;12.52;73.82
75972;BME280;64651;47.540;19.088;2023-10-31T22:14:43;99872.91;;;12.69;73.34
75972;BME280;64651;47.540;19.088;2023-10-31T22:31:21;99902.97;;;12.70;72.97
75972;BME280;64651;47.540;19.088;2023-10-31T22:36:24;99902.34;;;12.59;73.46
75972;BME280;64651;47.540;19.088;2023-10-31T22:41:26;99907.34;;;12.57;73.29
75972;BME280;64651;47.540;19.088;2023-10-31T22:46:29;99910.25;;;12.80;72.81
75972;BME280;64651;47.540;19.088;2023-10-31T22:51:31;99914.34;;;12.96;71.76
75972;BME280;64651;47.540;19.088;2023-10-31T22:56:33;99920.03;;;12.99;71.34
75972;BME280;64651;47.540;19.088;2023-10-31T23:01:36;99921.19;;;13.26;70.06
75972;BME280;64651;47.540;19.088;2023-10-31T23:06:38;99933.25;;;13.44;69.46
75972;BME280;64651;47.540;19.088;2023-10-31T23:11:43;99926.94;;;13.16;70.10
75972;BME280;64651;47.540;19.088;2023-10-31T23:16:49;99925.09;;;12.97;70.58
75972;BME280;64651;47.540;19.088;2023-10-31T23:21:53;99935.94;;;13.21;70.12
75972;BME280;64651;47.540;19.088;2023-10-31T23:26:56;99940.50;;;12.85;71.40
75972;BME280;64651;47.540;19.088;2023-10-31T23:31:58;99945.63;;;12.78;71.78
75972;BME280;64651;47.540;19.088;2023-10-31T23:37:02;99958.41;;;12.74;71.81
75972;BME280;64651;47.540;19.088;2023-10-31T23:42:04;99957.34;;;12.56;72.37
75972;BME280;64651;47.540;19.088;2023-10-31T23:47:07;99969.75;;;12.40;72.85
75972;BME280;64651;47.540;19.088;2023-10-31T23:52:10;99973.69;;;12.52;72.44
75972;BME280;64651;47.540;19.088;2023-10-31T23:57:12;99980.25;;;12.70;71.35
